Time;durP1;ratioP1;P1;durP2;ratioP2;P2;SDS_P1;SDS_P2;PMS_P1;PMS_P2;Temp;Humidity;BMP_temperature;BMP_pressure;BME280_temperature;BME280_humidity;BME280_pressure;Samples;Min_cycle;Max_cycle;Signal;HPM_P1;HPM_P2
2022/08/29 00:01:39;;;;;;;11.70;4.38;;;16.00;99.90;;;;;;4982077;28;20058;-70
2022/08/29 00:04:05;;;;;;;13.77;4.00;;;16.10;99.90;;;;;;4946547;28;211194;-70
2022/08/29 00:06:31;;;;;;;11.27;3.92;;;16.00;99.90;;;;;;4982467;28;20061;-70
2022/08/29 00:08:57;;;;;;;11.13;4.27;;;16.00;99.90;;;;;;4944232;28;213298;-70
2022/08/29 00:11:24;;;;;;;13.05;4.22;;;16.00;99.90;;;;;;4963487;28;20058;-70
2022/08/29 00:13:50;;;;;;;11.52;3.95;;;15.90;99.90;;;;;;4979224;28;20054;-70
2022/08/29 00:16:17;;;;;;;10.18;4.10;;;15.90;99.90;;;;;;4924065;28;184546;-70
2022/08/29 00:18:43;;;;;;;12.45;4.00;;;15.90;99.90;;;;;;4983069;28;20511;-70
2022/08/29 00:21:09;;;;;;;12.77;4.30;;;16.00;99.90;;;;;;4938098;28;211978;-69
2022/08/29 00:23:36;;;;;;;13.27;4.28;;;16.00;99.90;;;;;;4986788;28;20054;-70
2022/08/29 00:26:02;;;;;;;14.00;4.53;;;16.00;99.90;;;;;;4943930;28;215595;-70
2022/08/29 00:28:28;;;;;;;15.55;4.10;;;16.00;99.90;;;;;;4981920;28;20439;-70
2022/08/29 00:30:54;;;;;;;11.30;4.38;;;16.00;99.90;;;;;;4946218;28;212894;-70
2022/08/29 00:33:20;;;;;;;12.27;4.18;;;16.00;99.90;;;;;;4990381;28;20058;-70
2022/08/29 00:35:46;;;;;;;13.02;4.50;;;16.00;99.90;;;;;;4945992;28;210289;-70
2022/08/29 00:38:15;;;;;;;12.80;3.83;;;16.00;99.90;;;;;;4984373;28;20067;-70
2022/08/29 00:40:44;;;;;;;13.18;4.20;;;16.00;99.90;;;;;;4957013;28;219041;-70
2022/08/29 00:43:10;;;;;;;11.93;4.13;;;16.00;99.90;;;;;;4983681;28;20585;-70
2022/08/29 00:45:49;;;;;;;12.88;4.32;;;16.00;99.90;;;;;;4941794;28;212910;-70
2022/08/29 00:48:18;;;;;;;12.93;4.07;;;16.00;99.90;;;;;;4981482;28;20396;-69
2022/08/29 00:50:50;;;;;;;15.50;4.90;;;16.00;99.90;;;;;;4938270;28;210126;-69
2022/08/29 00:53:21;;;;;;;14.20;4.38;;;16.00;99.90;;;;;;4982023;28;20038;-70
2022/08/29 00:55:48;;;;;;;;;;;16.00;99.90;;;;;;4940662;28;214842;-69
2022/08/29 00:58:20;;;;;;;11.65;4.45;;;15.90;99.90;;;;;;4985888;28;19917;-70
2022/08/29 01:00:48;;;;;;;11.05;3.95;;;15.90;99.90;;;;;;4951164;28;213105;-69
2022/08/29 01:03:14;;;;;;;11.52;4.10;;;15.90;99.90;;;;;;4986466;28;20106;-69
2022/08/29 01:05:41;;;;;;;10.02;4.15;;;15.90;99.90;;;;;;4940798;28;209588;-69
2022/08/29 01:08:08;;;;;;;13.00;4.22;;;15.90;99.90;;;;;;4984940;28;20046;-68
2022/08/29 01:13:24;;;;;;;11.93;4.10;;;15.90;99.90;;;;;;4986163;28;21588;-69
2022/08/29 01:15:50;;;;;;;14.25;4.20;;;15.90;99.90;;;;;;4938703;28;203821;-70
2022/08/29 01:18:17;;;;;;;11.77;4.10;;;15.90;99.90;;;;;;4985010;28;20054;-69
2022/08/29 01:21:16;;;;;;;13.00;4.20;;;15.90;99.90;;;;;;4940890;28;209416;-68
2022/08/29 01:23:55;;;;;;;12.95;4.22;;;15.90;99.90;;;;;;4943078;28;20043;-69
2022/08/29 01:26:22;;;;;;;12.80;4.25;;;15.90;99.90;;;;;;4904178;28;206067;-69
2022/08/29 01:28:50;;;;;;;11.80;4.10;;;15.90;99.90;;;;;;4931816;28;20054;-68
2022/08/29 01:31:23;;;;;;;12.60;4.45;;;15.80;99.90;;;;;;4900049;28;257690;-68
2022/08/29 01:33:55;;;;;;;13.27;4.40;;;15.80;99.90;;;;;;4945014;28;20059;-69
2022/08/29 01:36:26;;;;;;;11.63;4.50;;;15.80;99.90;;;;;;4879173;29;206236;-69
2022/08/29 01:38:53;;;;;;;12.05;4.30;;;15.80;99.90;;;;;;4917701;28;150642;-69
2022/08/29 01:41:20;;;;;;;11.30;4.20;;;15.80;99.90;;;;;;4908315;28;206204;-68
2022/08/29 01:43:50;;;;;;;11.55;4.00;;;15.80;99.90;;;;;;4941207;28;20059;-68
2022/08/29 01:46:23;;;;;;;14.55;4.43;;;15.80;99.90;;;;;;4886496;28;264729;-68
2022/08/29 01:48:49;;;;;;;12.05;3.70;;;15.80;99.90;;;;;;4941911;28;20623;-69
2022/08/29 01:51:16;;;;;;;12.25;4.00;;;15.80;99.90;;;;;;4915388;28;209351;-69
2022/08/29 01:53:43;;;;;;;10.68;4.10;;;15.80;99.90;;;;;;4945942;28;20051;-69
2022/08/29 01:56:40;;;;;;;17.20;4.18;;;15.80;99.90;;;;;;4902160;28;159835;-69
2022/08/29 01:59:09;;;;;;;15.03;4.30;;;15.80;99.90;;;;;;4911482;28;209778;-68
2022/08/29 02:01:45;;;;;;;12.63;4.32;;;15.80;99.90;;;;;;4982287;28;20063;-69
2022/08/29 02:04:11;;;;;;;10.10;4.00;;;15.80;99.90;;;;;;4932567;28;210275;-69
2022/08/29 02:06:37;;;;;;;13.38;3.90;;;15.80;99.90;;;;;;4981842;28;20050;-69
2022/08/29 02:09:04;;;;;;;11.55;4.05;;;15.80;99.90;;;;;;4931633;28;214257;-69
2022/08/29 02:11:31;;;;;;;12.05;4.00;;;15.80;99.90;;;;;;4985213;28;20061;-69
2022/08/29 02:13:58;;;;;;;10.30;3.65;;;15.80;99.90;;;;;;4946661;28;213119;-68
2022/08/29 02:16:26;;;;;;;12.02;3.85;;;15.80;99.90;;;;;;4986782;28;20051;-69
2022/08/29 02:18:53;;;;;;;14.18;4.10;;;15.90;99.90;;;;;;4975794;28;209389;-69
2022/08/29 02:21:22;;;;;;;12.93;4.15;;;15.80;99.90;;;;;;4933749;28;175619;-68
2022/08/29 02:23:49;;;;;;;12.10;3.60;;;15.90;99.90;;;;;;4979082;28;20061;-69
2022/08/29 02:26:17;;;;;;;12.50;3.67;;;15.90;99.90;;;;;;4959747;28;210598;-69
2022/08/29 02:28:44;;;;;;;13.63;3.58;;;15.90;99.90;;;;;;4982208;28;20080;-69
2022/08/29 02:31:10;;;;;;;13.40;3.95;;;16.00;99.90;;;;;;4955927;28;210816;-69
2022/08/29 02:33:38;;;;;;;14.15;3.72;;;16.00;99.90;;;;;;4981990;28;20050;-69
2022/08/29 02:36:05;;;;;;;10.63;3.30;;;16.00;99.90;;;;;;4941909;28;209234;-70
2022/08/29 02:38:32;;;;;;;11.25;3.50;;;16.00;99.90;;;;;;4983257;28;20515;-69
2022/08/29 02:40:59;;;;;;;13.48;3.95;;;16.00;99.90;;;;;;4940868;28;210002;-69
2022/08/29 02:43:25;;;;;;;10.68;3.50;;;16.00;99.90;;;;;;4986586;28;20038;-69
2022/08/29 02:45:52;;;;;;;14.93;3.90;;;16.00;99.90;;;;;;4940547;28;210502;-69
2022/08/29 02:48:18;;;;;;;11.13;3.58;;;16.00;99.90;;;;;;4982349;28;20061;-69
2022/08/29 02:50:51;;;;;;;12.15;3.70;;;16.00;99.90;;;;;;4958447;28;210153;-69
2022/08/29 02:53:19;;;;;;;11.43;3.45;;;16.00;99.90;;;;;;4981508;28;20086;-69
2022/08/29 02:55:47;;;;;;;12.57;3.47;;;16.00;99.90;;;;;;4936552;28;209474;-69
2022/08/29 02:58:14;;;;;;;11.90;2.97;;;16.00;99.90;;;;;;4984650;28;20051;-70
2022/08/29 03:00:41;;;;;;;11.77;3.25;;;16.10;99.90;;;;;;4944731;28;209389;-69
2022/08/29 03:03:07;;;;;;;14.38;3.20;;;16.10;99.90;;;;;;4984747;28;20065;-70
2022/08/29 03:05:35;;;;;;;12.45;3.00;;;16.20;99.90;;;;;;4942953;28;214309;-69
2022/08/29 03:08:05;;;;;;;14.23;2.80;;;16.20;99.90;;;;;;4977680;28;20058;-69
2022/08/29 03:10:32;;;;;;;12.00;2.83;;;16.20;99.90;;;;;;4945687;28;209208;-69
2022/08/29 03:12:58;;;;;;;12.50;2.80;;;16.20;99.90;;;;;;4975821;28;20500;-68
2022/08/29 03:15:25;;;;;;;9.80;3.33;;;16.20;99.90;;;;;;4931841;28;210029;-69
2022/08/29 03:17:51;;;;;;;12.13;3.17;;;16.20;99.90;;;;;;4979029;28;20051;-69
2022/08/29 03:20:19;;;;;;;12.05;3.67;;;16.20;99.90;;;;;;4951618;28;209340;-69
2022/08/29 03:22:48;;;;;;;12.60;3.40;;;16.10;99.90;;;;;;4982900;28;20062;-70
2022/08/29 03:25:15;;;;;;;12.15;3.13;;;16.10;99.90;;;;;;4936428;28;205707;-68
2022/08/29 03:27:42;;;;;;;12.05;2.85;;;16.10;99.90;;;;;;4987761;28;20061;-69
2022/08/29 03:30:10;;;;;;;10.25;3.00;;;16.10;99.90;;;;;;4946897;28;213885;-68
2022/08/29 03:32:37;;;;;;;11.63;3.13;;;16.10;99.90;;;;;;4988567;28;20042;-69
2022/08/29 03:35:03;;;;;;;12.77;3.25;;;16.10;99.90;;;;;;4952177;28;210088;-69
2022/08/29 03:37:30;;;;;;;14.07;2.92;;;16.10;99.90;;;;;;4993744;28;20057;-69
2022/08/29 03:39:56;;;;;;;12.32;3.00;;;16.10;99.90;;;;;;4953734;28;210126;-68
2022/08/29 03:42:22;;;;;;;12.02;2.70;;;16.20;99.90;;;;;;4984577;28;20054;-69
2022/08/29 03:44:48;;;;;;;14.00;3.22;;;16.10;99.90;;;;;;4946328;28;210747;-69
2022/08/29 03:47:14;;;;;;;11.25;2.90;;;16.20;99.90;;;;;;4988711;28;20057;-69
2022/08/29 03:49:40;;;;;;;12.93;3.28;;;16.20;99.90;;;;;;4937069;28;215726;-69
2022/08/29 03:52:08;;;;;;;11.40;2.97;;;16.20;99.90;;;;;;4995862;28;20085;-69
2022/08/29 03:54:35;;;;;;;10.13;2.78;;;16.20;99.90;;;;;;4945775;28;209845;-70
2022/08/29 03:57:04;;;;;;;10.20;3.38;;;16.20;99.90;;;;;;4989106;28;20058;-70
2022/08/29 03:59:31;;;;;;;15.30;3.30;;;16.20;99.90;;;;;;4939235;28;206470;-69
2022/08/29 04:01:57;;;;;;;9.35;2.90;;;16.20;99.90;;;;;;4989269;28;20638;-68
2022/08/29 04:07:12;;;;;;;11.98;2.85;;;16.10;99.90;;;;;;4982301;28;20050;-69
2022/08/29 04:09:39;;;;;;;13.38;3.13;;;16.10;99.90;;;;;;4938249;28;212374;-68
2022/08/29 04:12:09;;;;;;;13.07;3.10;;;16.10;99.90;;;;;;4988348;28;20534;-67
2022/08/29 04:14:35;;;;;;;11.40;3.33;;;16.10;99.90;;;;;;4938456;28;209891;-69
2022/08/29 04:17:03;;;;;;;12.23;3.10;;;16.10;99.90;;;;;;4995782;28;20071;-68
2022/08/29 04:19:30;;;;;;;9.30;3.00;;;16.10;99.90;;;;;;4940111;28;208008;-69
2022/08/29 04:21:56;;;;;;;8.93;2.80;;;16.10;99.90;;;;;;4990060;28;20077;-69
2022/08/29 04:24:23;;;;;;;10.57;2.88;;;16.10;99.90;;;;;;4942988;28;209008;-69
2022/08/29 04:26:50;;;;;;;13.30;2.75;;;16.10;99.90;;;;;;4993324;28;20432;-69
2022/08/29 04:29:16;;;;;;;10.27;3.05;;;16.10;99.90;;;;;;4938723;28;209963;-69
2022/08/29 04:31:43;;;;;;;10.35;2.72;;;16.10;99.90;;;;;;4978364;28;20061;-68
2022/08/29 04:34:11;;;;;;;11.25;2.60;;;16.10;99.90;;;;;;4938418;28;212432;-69
2022/08/29 04:36:41;;;;;;;11.35;2.72;;;16.10;99.90;;;;;;4996388;28;20065;-69
2022/08/29 04:39:08;;;;;;;12.27;2.80;;;16.10;99.90;;;;;;4936598;28;210112;-69
2022/08/29 04:41:36;;;;;;;13.98;3.10;;;16.10;99.90;;;;;;4989397;28;20054;-69
2022/08/29 04:44:03;;;;;;;12.23;2.72;;;16.10;99.90;;;;;;4935989;28;210972;-69
2022/08/29 04:46:30;;;;;;;11.27;2.78;;;16.00;99.90;;;;;;5001337;28;20076;-69
2022/08/29 04:48:56;;;;;;;9.23;2.78;;;16.00;99.90;;;;;;4955862;28;210578;-69
2022/08/29 04:51:22;;;;;;;12.82;2.92;;;16.00;99.90;;;;;;4951467;28;206530;-68
2022/08/29 04:53:50;;;;;;;11.20;2.85;;;15.90;99.90;;;;;;4970067;28;20046;-69
2022/08/29 04:56:17;;;;;;;14.88;3.10;;;15.90;99.90;;;;;;4953153;28;210899;-69
2022/08/29 04:58:44;;;;;;;13.25;3.00;;;15.90;99.90;;;;;;4980259;28;20054;-69
2022/08/29 05:01:20;;;;;;;14.40;3.38;;;15.80;99.90;;;;;;4933780;28;214803;-69
2022/08/29 05:03:47;;;;;;;10.02;2.90;;;15.80;99.90;;;;;;4976482;28;20466;-69
2022/08/29 05:06:15;;;;;;;11.65;2.92;;;15.90;99.90;;;;;;4927956;28;206492;-68
2022/08/29 05:08:44;;;;;;;12.32;2.67;;;15.80;99.90;;;;;;4982850;28;20058;-68
2022/08/29 05:11:14;;;;;;;10.77;2.58;;;15.80;99.90;;;;;;4943678;28;209941;-69
2022/08/29 05:13:40;;;;;;;13.55;2.70;;;15.80;99.90;;;;;;4983229;28;20858;-69
2022/08/29 05:16:09;;;;;;;13.13;2.90;;;15.80;99.90;;;;;;4943222;28;210358;-68
2022/08/29 05:18:35;;;;;;;12.18;2.50;;;15.80;99.90;;;;;;4983110;28;20054;-69
2022/08/29 05:21:01;;;;;;;11.27;2.75;;;15.80;99.90;;;;;;4944067;28;209378;-69
2022/08/29 05:23:27;;;;;;;13.30;2.92;;;15.90;99.90;;;;;;4985453;28;20137;-69
2022/08/29 05:25:57;;;;;;;11.57;2.83;;;15.90;99.90;;;;;;4950923;28;173871;-70
2022/08/29 05:28:24;;;;;;;12.65;2.78;;;15.90;99.90;;;;;;4979167;28;20062;-68
2022/08/29 05:30:50;;;;;;;12.57;2.60;;;15.90;99.90;;;;;;4947812;28;208094;-70
2022/08/29 05:33:16;;;;;;;10.98;2.88;;;15.90;99.90;;;;;;4980913;28;20350;-69
2022/08/29 05:35:43;;;;;;;14.63;2.80;;;16.00;99.90;;;;;;4938322;28;210134;-69
2022/08/29 05:38:10;;;;;;;13.50;2.65;;;16.00;99.90;;;;;;4977798;28;20062;-70
2022/08/29 05:40:37;;;;;;;13.55;3.10;;;16.00;99.90;;;;;;4955612;28;208609;-70
2022/08/29 05:43:04;;;;;;;15.90;3.75;;;16.10;99.90;;;;;;4979893;28;20050;-69
2022/08/29 05:45:31;;;;;;;13.07;2.88;;;16.10;99.90;;;;;;4956916;28;213778;-70
2022/08/29 05:48:02;;;;;;;14.23;3.53;;;16.10;99.90;;;;;;4980639;28;20404;-69
2022/08/29 05:50:28;;;;;;;11.45;2.90;;;16.10;99.90;;;;;;4953577;28;212599;-68
2022/08/29 05:52:54;;;;;;;12.20;3.50;;;16.20;99.90;;;;;;4984175;28;20046;-70
2022/08/29 05:55:20;;;;;;;19.63;3.03;;;16.20;99.90;;;;;;4939492;28;209266;-69
2022/08/29 05:57:48;;;;;;;10.70;3.10;;;16.20;99.90;;;;;;4985818;28;20062;-69
2022/08/29 06:00:15;;;;;;;15.15;3.20;;;16.30;99.90;;;;;;4938115;28;211627;-70
2022/08/29 06:02:41;;;;;;;12.68;2.78;;;16.30;99.90;;;;;;4987520;28;20132;-70
2022/08/29 06:05:08;;;;;;;14.88;2.90;;;16.40;99.90;;;;;;4944133;28;211899;-68
2022/08/29 06:07:34;;;;;;;12.93;3.20;;;16.40;99.90;;;;;;4987017;28;20534;-69
2022/08/29 06:10:00;;;;;;;12.50;3.50;;;16.40;99.90;;;;;;4947598;28;209462;-70
2022/08/29 06:12:26;;;;;;;11.52;2.40;;;16.50;99.90;;;;;;4985228;28;20053;-69
2022/08/29 06:14:52;;;;;;;13.68;3.00;;;16.60;99.90;;;;;;4933098;28;209555;-69
2022/08/29 06:17:19;;;;;;;13.95;2.50;;;16.60;99.90;;;;;;4977313;28;20405;-69
2022/08/29 06:19:49;;;;;;;12.30;2.75;;;16.70;99.90;;;;;;4926250;28;212713;-68
2022/08/29 06:22:15;;;;;;;12.00;2.75;;;16.80;99.90;;;;;;4973895;28;20063;-70
2022/08/29 06:24:41;;;;;;;13.80;2.88;;;16.90;99.90;;;;;;4915470;28;210954;-69
2022/08/29 06:27:07;;;;;;;14.05;2.80;;;17.00;99.90;;;;;;4966698;28;20059;-69
2022/08/29 06:29:33;;;;;;;10.93;2.40;;;17.00;99.90;;;;;;4926828;28;209891;-69
2022/08/29 06:31:59;;;;;;;11.13;2.90;;;17.20;99.90;;;;;;4995842;28;20427;-69
2022/08/29 06:34:26;;;;;;;14.60;3.10;;;17.30;99.90;;;;;;4955470;28;206678;-69
2022/08/29 06:36:52;;;;;;;11.15;2.40;;;17.40;99.90;;;;;;4994709;28;20070;-69
2022/08/29 06:39:18;;;;;;;12.30;2.78;;;17.50;99.90;;;;;;4940032;28;212828;-69
2022/08/29 06:41:44;;;;;;;12.02;2.40;;;17.70;99.90;;;;;;4987208;28;20061;-68
2022/08/29 06:44:10;;;;;;;11.63;2.33;;;17.80;99.90;;;;;;4940549;28;210081;-69
2022/08/29 06:46:44;;;;;;;12.50;2.50;;;17.90;99.90;;;;;;4989471;28;20503;-68
2022/08/29 06:49:13;;;;;;;11.55;2.60;;;17.90;99.90;;;;;;4946638;28;208084;-69
2022/08/29 06:51:42;;;;;;;11.88;2.42;;;17.90;99.90;;;;;;4986084;28;20058;-70
2022/08/29 06:54:10;;;;;;;11.77;2.65;;;18.00;99.90;;;;;;4938799;28;217231;-69
2022/08/29 06:56:36;;;;;;;8.50;2.22;;;18.00;99.90;;;;;;4989326;28;20054;-70
2022/08/29 06:59:04;;;;;;;10.80;2.30;;;18.00;99.90;;;;;;4941437;28;209557;-68
2022/08/29 07:01:30;;;;;;;12.60;2.75;;;18.10;99.90;;;;;;4988924;28;20085;-69
2022/08/29 07:03:57;;;;;;;10.70;2.30;;;18.10;99.90;;;;;;4961633;28;215125;-69
2022/08/29 07:06:24;;;;;;;10.88;2.50;;;18.20;99.90;;;;;;4971796;28;206287;-70
2022/08/29 07:08:51;;;;;;;9.18;2.30;;;18.20;99.90;;;;;;4989093;28;20062;-69
2022/08/29 07:11:17;;;;;;;13.80;2.70;;;18.20;99.90;;;;;;4925738;28;206835;-69
2022/08/29 07:13:44;;;;;;;12.85;2.70;;;18.30;99.90;;;;;;4964194;28;20051;-70
2022/08/29 07:16:15;;;;;;;10.73;2.30;;;18.30;99.90;;;;;;4923954;28;209419;-68
2022/08/29 07:18:46;;;;;;;13.48;2.72;;;18.30;99.90;;;;;;4964848;28;20058;-68
2022/08/29 07:21:15;;;;;;;11.05;2.40;;;18.30;99.90;;;;;;4924295;28;209439;-70
2022/08/29 07:23:42;;;;;;;14.95;2.80;;;18.50;99.90;;;;;;4960602;28;20059;-69
2022/08/29 07:26:18;;;;;;;14.38;2.85;;;18.50;99.90;;;;;;4935118;28;209834;-69
2022/08/29 07:28:49;;;;;;;9.32;2.72;;;18.50;99.90;;;;;;4965730;28;20061;-70
2022/08/29 07:31:15;;;;;;;11.57;2.85;;;18.50;99.90;;;;;;4928893;28;209357;-69
2022/08/29 07:33:42;;;;;;;13.48;2.60;;;18.60;99.90;;;;;;4972348;28;20054;-69
2022/08/29 07:36:08;;;;;;;12.68;2.60;;;18.70;99.90;;;;;;4924062;28;209108;-69
2022/08/29 07:38:37;;;;;;;15.35;2.63;;;18.90;99.90;;;;;;4981003;28;20047;-69
2022/08/29 07:41:06;;;;;;;12.32;2.60;;;19.20;99.90;;;;;;4942533;28;209198;-70
2022/08/29 07:43:32;;;;;;;12.23;2.50;;;19.70;99.90;;;;;;4985699;28;20656;-70
2022/08/29 07:46:12;;;;;;;14.85;2.70;;;20.30;99.90;;;;;;4939667;28;209246;-70
2022/08/29 07:48:40;;;;;;;13.75;2.80;;;20.90;99.90;;;;;;4991507;28;20050;-71
2022/08/29 07:51:16;;;;;;;11.95;2.30;;;21.40;99.90;;;;;;4950202;28;209053;-70
2022/08/29 07:53:42;;;;;;;14.43;2.70;;;21.80;99.90;;;;;;4989031;28;20050;-70
2022/08/29 07:56:12;;;;;;;15.00;2.78;;;22.20;99.90;;;;;;4942247;28;209509;-70
2022/08/29 07:58:39;;;;;;;12.80;3.22;;;22.40;99.90;;;;;;4967753;28;20073;-70
2022/08/29 08:01:05;;;;;;;13.25;2.70;;;22.40;99.90;;;;;;4936193;28;210809;-70
2022/08/29 08:03:33;;;;;;;13.40;2.40;;;22.70;99.90;;;;;;4965691;28;20051;-70
2022/08/29 08:05:59;;;;;;;14.07;2.75;;;23.10;99.90;;;;;;4935099;28;209380;-68
2022/08/29 08:08:26;;;;;;;12.80;2.30;;;23.50;99.90;;;;;;4970909;28;20070;-69
2022/08/29 08:10:52;;;;;;;12.25;3.00;;;23.70;99.90;;;;;;4929148;28;215585;-70
2022/08/29 08:13:19;;;;;;;14.30;2.72;;;23.70;99.90;;;;;;4968490;28;20042;-69
2022/08/29 08:15:45;;;;;;;12.27;2.70;;;23.70;99.90;;;;;;4945724;28;214519;-69
2022/08/29 08:18:11;;;;;;;12.13;2.55;;;23.50;99.90;;;;;;4986831;28;20065;-68
2022/08/29 08:20:38;;;;;;;12.02;2.70;;;23.40;99.90;;;;;;4946072;28;209871;-69
2022/08/29 08:23:04;;;;;;;15.23;2.88;;;23.20;99.90;;;;;;4986670;28;20515;-69
2022/08/29 08:25:30;;;;;;;13.40;3.00;;;23.10;99.90;;;;;;4941656;28;210457;-69
2022/08/29 08:27:57;;;;;;;14.85;2.78;;;23.10;99.90;;;;;;4985721;28;20050;-69
2022/08/29 08:30:24;;;;;;;12.55;2.60;;;23.20;99.90;;;;;;4939359;28;209509;-69
2022/08/29 08:32:50;;;;;;;13.35;2.63;;;23.30;99.80;;;;;;4986472;28;20420;-70
2022/08/29 08:35:18;;;;;;;16.27;2.60;;;23.10;99.60;;;;;;4946946;28;210069;-70
2022/08/29 08:37:45;;;;;;;14.55;2.90;;;23.00;99.50;;;;;;4989560;28;20057;-70
2022/08/29 08:40:19;;;;;;;12.38;2.40;;;22.90;99.60;;;;;;4947637;28;207658;-70
2022/08/29 08:42:45;;;;;;;11.70;2.72;;;22.70;99.40;;;;;;4984155;28;20058;-69
2022/08/29 08:45:25;;;;;;;16.67;2.88;;;22.60;99.50;;;;;;4939827;28;211069;-70
2022/08/29 08:48:05;;;;;;;14.18;2.55;;;22.50;99.60;;;;;;4987323;28;20062;-69
2022/08/29 08:50:59;;;;;;;14.10;2.75;;;22.30;99.80;;;;;;4946648;28;210825;-69
2022/08/29 08:53:36;;;;;;;12.23;2.60;;;22.20;99.90;;;;;;4989309;28;20066;-69
2022/08/29 08:56:11;;;;;;;12.02;2.80;;;22.00;99.90;;;;;;4961448;28;210785;-69
2022/08/29 08:58:56;;;;;;;13.50;3.08;;;21.90;99.90;;;;;;4987349;28;20503;-69
2022/08/29 09:01:22;;;;;;;16.10;3.28;;;21.90;99.90;;;;;;4920644;28;194836;-69
2022/08/29 09:04:07;;;;;;;15.30;3.22;;;21.80;99.90;;;;;;4965628;28;20065;-70
2022/08/29 09:06:56;;;;;;;12.73;2.83;;;21.70;99.90;;;;;;4926816;28;206458;-69
2022/08/29 09:09:40;;;;;;;21.15;3.60;;;21.70;99.90;;;;;;4924542;28;207876;-69
2022/08/29 09:12:31;;;;;;;13.20;2.92;;;21.60;99.90;;;;;;4958519;28;20043;-69
2022/08/29 09:15:03;;;;;;;16.60;3.33;;;21.50;99.90;;;;;;4929335;28;218374;-68
2022/08/29 09:17:49;;;;;;;14.60;2.90;;;21.40;99.90;;;;;;4977112;28;20488;-68
2022/08/29 09:20:21;;;;;;;19.95;3.28;;;21.50;99.90;;;;;;4934990;28;209618;-69
2022/08/29 09:23:10;;;;;;;15.07;3.40;;;21.40;99.90;;;;;;4981308;28;20054;-69
2022/08/29 09:25:36;;;;;;;15.32;3.10;;;21.30;99.90;;;;;;4907368;28;206565;-68
2022/08/29 09:28:07;;;;;;;12.85;3.08;;;21.20;99.90;;;;;;4947747;28;20065;-69
2022/08/29 09:30:35;;;;;;;13.63;3.20;;;21.10;99.90;;;;;;4904636;28;206819;-69
2022/08/29 09:33:03;;;;;;;18.13;3.53;;;21.10;99.90;;;;;;4948308;28;20127;-69
2022/08/29 09:35:39;;;;;;;14.23;3.30;;;21.10;99.90;;;;;;4899706;28;206894;-69
2022/08/29 09:38:17;;;;;;;14.07;3.20;;;21.10;99.90;;;;;;4946233;28;20429;-69
2022/08/29 09:40:54;;;;;;;15.57;3.53;;;21.10;99.90;;;;;;4897859;28;212157;-69
2022/08/29 09:43:23;;;;;;;13.52;3.25;;;21.20;99.90;;;;;;4942916;28;20055;-70
2022/08/29 09:46:04;;;;;;;14.02;3.05;;;21.20;99.90;;;;;;4905797;28;207768;-69
2022/08/29 09:48:30;;;;;;;17.52;3.80;;;21.30;99.90;;;;;;4948341;28;20059;-69
2022/08/29 09:51:14;;;;;;;16.80;3.42;;;21.40;99.90;;;;;;4906825;28;206561;-69
2022/08/29 09:53:42;;;;;;;16.83;3.50;;;21.50;99.90;;;;;;4948538;28;20591;-68
2022/08/29 09:56:17;;;;;;;18.05;3.40;;;21.50;99.90;;;;;;4896849;28;207650;-69
2022/08/29 09:58:44;;;;;;;16.85;3.30;;;21.60;99.90;;;;;;4945534;28;20113;-69
2022/08/29 10:01:20;;;;;;;18.50;3.38;;;21.70;99.90;;;;;;4887232;29;206760;-69
2022/08/29 10:04:03;;;;;;;15.85;3.40;;;21.80;99.90;;;;;;4980658;28;20050;-70
2022/08/29 10:06:33;;;;;;;13.27;3.00;;;21.80;99.90;;;;;;4920749;28;204847;-68
2022/08/29 10:09:22;;;;;;;13.98;3.42;;;22.00;99.90;;;;;;4944833;28;210249;-69
2022/08/29 10:11:59;;;;;;;18.70;3.80;;;22.20;99.90;;;;;;4980553;28;20054;-69
2022/08/29 10:14:50;;;;;;;21.17;4.03;;;22.30;99.90;;;;;;4946635;28;213646;-68
2022/08/29 10:20:10;;;;;;;12.48;3.33;;;22.60;99.90;;;;;;4950378;28;209978;-67
2022/08/29 10:22:42;;;;;;;13.50;3.50;;;22.60;99.90;;;;;;4990802;28;20049;-69
2022/08/29 10:25:43;;;;;;;17.42;3.50;;;22.60;99.90;;;;;;4944401;28;210225;-68
2022/08/29 10:28:24;;;;;;;14.65;3.58;;;22.60;99.90;;;;;;4929421;29;20059;-69
2022/08/29 10:31:16;;;;;;;11.98;3.17;;;22.60;99.90;;;;;;4882403;29;223935;-69
2022/08/29 10:34:01;;;;;;;15.05;3.50;;;22.60;99.90;;;;;;4924535;29;20059;-68
2022/08/29 10:36:31;;;;;;;11.43;3.38;;;22.60;99.80;;;;;;4873449;29;206813;-68
2022/08/29 10:39:37;;;;;;;9.87;2.90;;;22.60;99.90;;;;;;4901063;29;205830;-68
2022/08/29 10:42:15;;;;;;;10.68;2.83;;;22.60;99.60;;;;;;4862911;29;20062;-69
2022/08/29 10:44:50;;;;;;;12.05;3.28;;;22.60;99.60;;;;;;4809178;29;211855;-68
2022/08/29 10:47:31;;;;;;;15.75;3.42;;;22.60;99.60;;;;;;4860405;29;20391;-69
2022/08/29 10:50:06;;;;;;;13.57;3.63;;;22.70;99.50;;;;;;4812899;29;206532;-69
2022/08/29 10:52:53;;;;;;;12.25;3.40;;;22.70;99.40;;;;;;4842550;29;20053;-69
2022/08/29 10:55:43;;;;;;;14.18;3.17;;;22.80;99.40;;;;;;4798428;29;206113;-68
2022/08/29 10:58:40;;;;;;;13.13;3.07;;;22.90;99.30;;;;;;4842469;29;20822;-69
2022/08/29 11:01:13;;;;;;;12.70;3.30;;;23.00;99.20;;;;;;4805657;29;206405;-70
2022/08/29 11:04:09;;;;;;;14.07;3.42;;;23.20;99.30;;;;;;4840758;29;20053;-69
2022/08/29 11:07:03;;;;;;;11.45;3.00;;;23.40;98.90;;;;;;4868472;29;207336;-68
2022/08/29 11:09:39;;;;;;;14.02;3.20;;;23.50;98.80;;;;;;4884318;29;210039;-68
2022/08/29 11:12:22;;;;;;;12.68;3.40;;;23.70;99.00;;;;;;4921423;29;20063;-69
2022/08/29 11:15:06;;;;;;;10.10;3.00;;;24.00;98.70;;;;;;4884318;29;205548;-69
2022/08/29 11:17:37;;;;;;;11.15;3.05;;;24.10;98.50;;;;;;4940022;28;20410;-69
2022/08/29 11:20:12;;;;;;;10.35;2.90;;;24.30;98.40;;;;;;4936019;28;206348;-69
2022/08/29 11:22:53;;;;;;;12.18;3.10;;;24.50;98.30;;;;;;4989189;28;20062;-69
2022/08/29 11:25:20;;;;;;;12.70;3.45;;;24.70;98.00;;;;;;4940416;28;209019;-69
2022/08/29 11:28:09;;;;;;;11.90;2.90;;;24.90;97.80;;;;;;4991160;28;20517;-68
2022/08/29 11:30:48;;;;;;;10.13;2.83;;;25.00;97.30;;;;;;4949503;28;216766;-68
2022/08/29 11:33:38;;;;;;;11.90;3.60;;;24.90;97.10;;;;;;4989937;28;20054;-68
2022/08/29 11:36:10;;;;;;;10.15;2.90;;;24.90;97.00;;;;;;4955757;28;212831;-68
2022/08/29 11:38:51;;;;;;;11.88;2.90;;;25.00;97.00;;;;;;4988693;28;20526;-68
2022/08/29 11:41:37;;;;;;;13.35;3.45;;;25.10;96.90;;;;;;4924220;28;206306;-69
2022/08/29 11:44:13;;;;;;;11.68;3.08;;;25.40;96.60;;;;;;4917855;28;209724;-70
2022/08/29 11:46:44;;;;;;;11.75;3.20;;;25.70;96.60;;;;;;4971980;28;20050;-69
2022/08/29 11:49:37;;;;;;;12.13;3.22;;;26.10;96.50;;;;;;4931407;28;212875;-69
2022/08/29 11:52:09;;;;;;;14.60;3.30;;;26.40;95.70;;;;;;4969271;28;20062;-69
2022/08/29 11:54:36;;;;;;;10.32;3.35;;;26.90;95.60;;;;;;4927557;28;206841;-68
2022/08/29 11:57:04;;;;;;;13.38;3.25;;;27.10;95.30;;;;;;4968442;28;20537;-69
2022/08/29 11:59:48;;;;;;;12.32;3.33;;;27.20;94.80;;;;;;4921679;28;215831;-69
2022/08/29 12:02:26;;;;;;;13.98;3.45;;;27.30;94.10;;;;;;4966677;28;20047;-68
2022/08/29 12:05:05;;;;;;;11.82;3.53;;;27.40;94.00;;;;;;4922010;28;207075;-69
2022/08/29 12:07:37;;;;;;;9.90;2.80;;;27.60;93.60;;;;;;4970669;28;20480;-69
2022/08/29 12:10:12;;;;;;;9.65;2.83;;;27.90;93.70;;;;;;4931245;28;213247;-68
2022/08/29 12:12:45;;;;;;;12.15;2.80;;;28.20;93.30;;;;;;4973742;28;20057;-68
2022/08/29 12:15:25;;;;;;;11.95;3.28;;;28.40;92.70;;;;;;4926670;28;212560;-69
2022/08/29 12:17:54;;;;;;;15.13;3.05;;;28.50;92.00;;;;;;4969395;28;20062;-69
2022/08/29 12:20:34;;;;;;;10.95;2.92;;;28.60;92.50;;;;;;4943393;28;213244;-69
2022/08/29 12:23:05;;;;;;;;;;;28.70;91.80;;;;;;4973547;28;20050;-69
2022/08/29 12:25:45;;;;;;;12.93;2.83;;;28.20;90.40;;;;;;4928241;28;216864;-69
2022/08/29 12:28:17;;;;;;;12.32;2.55;;;27.40;91.40;;;;;;4986053;28;20069;-69
2022/08/29 12:30:57;;;;;;;13.95;3.05;;;26.90;91.70;;;;;;4941048;28;209927;-70
2022/08/29 12:33:52;;;;;;;13.68;3.20;;;26.60;91.70;;;;;;4983421;28;20051;-69
2022/08/29 12:36:44;;;;;;;14.27;3.17;;;26.40;91.50;;;;;;4921889;28;208810;-68
2022/08/29 12:39:18;;;;;;;11.30;2.55;;;26.00;92.40;;;;;;4944989;28;210681;-68
2022/08/29 12:41:50;;;;;;;11.00;2.80;;;25.60;92.70;;;;;;4991212;28;20038;-69
2022/08/29 12:44:25;;;;;;;14.40;3.05;;;25.50;92.80;;;;;;4938287;28;217507;-69
2022/08/29 12:47:07;;;;;;;9.13;2.63;;;25.40;92.90;;;;;;4985820;28;20054;-69
2022/08/29 12:49:49;;;;;;;12.35;2.60;;;25.00;93.00;;;;;;4941209;28;215146;-69
2022/08/29 12:52:26;;;;;;;11.80;2.60;;;24.60;93.30;;;;;;4985929;28;20065;-68
2022/08/29 12:54:55;;;;;;;11.65;2.90;;;24.40;93.60;;;;;;4947580;28;212699;-68
2022/08/29 12:57:43;;;;;;;11.10;2.90;;;24.30;93.90;;;;;;4992362;28;20061;-68
2022/08/29 13:00:18;;;;;;;11.50;2.90;;;24.50;93.60;;;;;;4937247;28;211873;-68
2022/08/29 13:02:56;;;;;;;9.02;2.33;;;24.50;93.70;;;;;;4990718;28;20045;-69